aviador You're here:

KAPC Decoded Metar

NAPA in CA, USA
Report Time2018-01-21 01:54:00
UTC Time2018-01-21 02:45:34
Flight Rules vfr VFR
Wind280° at 06 kt
W.Decomp.*RWY 24: 5.4 kt HW 2.5 kt RCW
RWY 18: 0.5 kt HW 6.0 kt RCW
W.Rank280° ranks 10
Current wind is below 280° avg. (8.3)
Visibility9999 m
Phenomena:N/A
Clouds:N/A
Expected CloudBase > 1,200 ft AGL from Temp-Dew spread
CeilingNone
Temp09°C (ISA -6)
Dew Point06°C (82% RH)
AAT5.9°C
QNH1023 hPa
Density Alt-876 ft
Elevation43 ft
Report Wrong Elevation
Raw Report
KAPC 210154Z 28006KT 10SM CLR 09/06 A3020 RMK AO2 SLP217
T00940056=

Extra information for KAPC:More info

Metar Taf Metar & Taf Last 4 Metars F.Rules Stats Wind Profile Meteogram Temp Stats Airport Information Weather charts Add Link Nearby VenuesMetar ALERT Operation Metar Decoded Social comments

AIRNAV info for KAPC